createdAt,value
2022-10-18T00:00:04.750Z,0
2022-10-18T00:01:04.811Z,0
2022-10-18T00:02:04.821Z,0
2022-10-18T00:03:04.774Z,0
2022-10-18T00:04:04.756Z,0
2022-10-18T00:05:04.770Z,0
2022-10-18T00:06:04.748Z,0
2022-10-18T00:07:04.786Z,0
2022-10-18T00:08:04.769Z,0
2022-10-18T00:09:04.777Z,0
2022-10-18T00:10:04.773Z,0
2022-10-18T00:11:04.766Z,0
2022-10-18T00:12:04.820Z,0.8
2022-10-18T00:13:04.786Z,0.8
2022-10-18T00:14:04.779Z,0.6
2022-10-18T00:15:04.781Z,0.5
2022-10-18T00:16:04.799Z,0.6
2022-10-18T00:17:04.817Z,0.8
2022-10-18T00:18:04.800Z,0
2022-10-18T00:19:04.798Z,0
2022-10-18T00:20:04.835Z,0
2022-10-18T00:21:04.803Z,0
2022-10-18T00:22:04.813Z,0
2022-10-18T00:23:04.822Z,0
2022-10-18T00:24:04.806Z,0
2022-10-18T00:25:04.840Z,0
2022-10-18T00:26:04.810Z,0
2022-10-18T00:27:04.840Z,0
2022-10-18T00:28:04.832Z,0
2022-10-18T00:29:04.824Z,0
2022-10-18T00:30:04.821Z,0
2022-10-18T00:31:04.823Z,0
2022-10-18T00:32:04.830Z,0
2022-10-18T00:33:04.870Z,0
2022-10-18T00:34:04.867Z,0
2022-10-18T00:35:04.858Z,0
2022-10-18T00:36:04.866Z,0
2022-10-18T00:37:04.867Z,0
2022-10-18T00:38:04.880Z,0
2022-10-18T00:39:04.859Z,0
2022-10-18T00:40:04.873Z,0
2022-10-18T00:41:04.892Z,0
2022-10-18T00:42:04.890Z,0
2022-10-18T00:43:04.887Z,0
2022-10-18T00:44:04.863Z,0
2022-10-18T00:45:04.886Z,0
2022-10-18T00:46:04.868Z,0
2022-10-18T00:47:04.879Z,0
2022-10-18T00:48:04.917Z,0
2022-10-18T00:49:04.912Z,0
2022-10-18T00:50:04.887Z,0
2022-10-18T00:51:04.907Z,0
2022-10-18T00:52:04.890Z,0
2022-10-18T00:53:04.920Z,0
2022-10-18T00:54:04.908Z,0
2022-10-18T00:55:04.910Z,0
2022-10-18T00:56:04.898Z,0
2022-10-18T00:57:05.086Z,0
2022-10-18T00:58:04.931Z,0.5
2022-10-18T00:59:04.897Z,0
2022-10-18T01:00:04.897Z,0
2022-10-18T01:01:04.936Z,0.7
2022-10-18T01:02:04.975Z,0
2022-10-18T01:03:04.926Z,0
2022-10-18T01:04:04.908Z,0
2022-10-18T01:05:04.934Z,0
2022-10-18T01:06:04.909Z,0.8
2022-10-18T01:07:04.930Z,0.5
2022-10-18T01:08:04.945Z,0.6
2022-10-18T01:09:04.949Z,0
2022-10-18T01:10:04.925Z,0.5
2022-10-18T01:11:04.913Z,0.7
2022-10-18T01:12:04.920Z,0.5
2022-10-18T01:13:04.940Z,0.8
2022-10-18T01:14:04.937Z,0
2022-10-18T01:15:04.935Z,0
2022-10-18T01:16:04.932Z,0
2022-10-18T01:17:04.967Z,0
2022-10-18T01:18:04.965Z,0
2022-10-18T01:19:04.939Z,0
2022-10-18T01:20:04.954Z,0
2022-10-18T01:21:04.975Z,0
2022-10-18T01:22:04.966Z,0
2022-10-18T01:23:05.004Z,0
2022-10-18T01:24:04.974Z,0
2022-10-18T01:25:04.979Z,0
2022-10-18T01:26:04.973Z,0
2022-10-18T01:27:04.954Z,0
2022-10-18T01:28:04.966Z,0
2022-10-18T01:29:05.044Z,0
2022-10-18T01:30:04.973Z,0
2022-10-18T01:31:04.982Z,0
2022-10-18T01:32:04.976Z,0
2022-10-18T01:33:04.991Z,0
2022-10-18T01:34:04.997Z,0
2022-10-18T01:35:04.970Z,0
2022-10-18T01:36:04.980Z,0
2022-10-18T01:37:04.997Z,0
2022-10-18T01:38:04.994Z,0
2022-10-18T01:39:04.979Z,0
2022-10-18T01:40:05.002Z,0
2022-10-18T01:41:04.987Z,0
2022-10-18T01:42:04.979Z,0
2022-10-18T01:44:04.993Z,0
2022-10-18T01:45:04.989Z,0
2022-10-18T01:46:04.985Z,0
2022-10-18T01:47:04.979Z,0
2022-10-18T01:48:05.010Z,0
2022-10-18T01:49:04.992Z,0
2022-10-18T01:50:04.992Z,0
2022-10-18T01:51:05.018Z,0
2022-10-18T01:52:05.068Z,0
2022-10-18T01:53:05.050Z,0
2022-10-18T01:54:05.004Z,0
2022-10-18T01:55:05.018Z,0
2022-10-18T01:56:05.012Z,0
2022-10-18T01:57:05.015Z,0
2022-10-18T01:58:05.046Z,0
2022-10-18T01:59:05.022Z,0
2022-10-18T02:00:05.031Z,1.2
2022-10-18T02:01:05.079Z,0.8
2022-10-18T02:02:05.037Z,1.1
2022-10-18T02:03:05.060Z,0.6
2022-10-18T02:04:05.048Z,0.5
2022-10-18T02:05:05.033Z,0
2022-10-18T02:06:05.033Z,0.5
2022-10-18T02:07:05.042Z,0
2022-10-18T02:08:12.468Z,0
2022-10-18T02:09:05.056Z,0
2022-10-18T02:10:05.126Z,0.6
2022-10-18T02:11:05.046Z,0
2022-10-18T02:12:05.092Z,0
2022-10-18T02:13:05.086Z,0
2022-10-18T02:14:05.063Z,0
2022-10-18T02:15:05.053Z,0
2022-10-18T02:16:05.088Z,0
2022-10-18T02:17:05.055Z,0
2022-10-18T02:18:05.070Z,0
2022-10-18T02:19:05.060Z,0
2022-10-18T02:20:05.059Z,0
2022-10-18T02:21:05.055Z,0
2022-10-18T02:22:05.074Z,0
2022-10-18T02:23:05.073Z,0
2022-10-18T02:24:05.071Z,0
2022-10-18T02:25:05.116Z,0
2022-10-18T02:26:05.079Z,0
2022-10-18T02:27:05.078Z,0
2022-10-18T02:28:05.081Z,0
2022-10-18T02:29:05.075Z,0
2022-10-18T02:30:05.093Z,0
2022-10-18T02:31:05.080Z,0
2022-10-18T02:32:05.089Z,0
2022-10-18T02:33:05.097Z,0
2022-10-18T02:34:05.118Z,0
2022-10-18T02:35:05.093Z,0.7
2022-10-18T02:36:05.093Z,0
2022-10-18T02:37:05.096Z,0.5
2022-10-18T02:38:05.109Z,0
2022-10-18T02:39:05.107Z,0
2022-10-18T02:40:05.109Z,0
2022-10-18T02:41:05.129Z,0
2022-10-18T02:42:05.092Z,0
2022-10-18T02:43:05.106Z,0
2022-10-18T02:44:05.093Z,0
2022-10-18T02:45:05.127Z,0
2022-10-18T02:46:05.124Z,0
2022-10-18T02:47:05.128Z,0
2022-10-18T02:48:05.148Z,0
2022-10-18T02:49:05.140Z,0
2022-10-18T02:50:05.154Z,0
2022-10-18T02:51:05.126Z,0
2022-10-18T02:52:05.118Z,0
2022-10-18T02:53:05.145Z,0
2022-10-18T02:54:05.133Z,0
2022-10-18T02:55:05.148Z,0
2022-10-18T02:56:05.137Z,0
2022-10-18T02:57:05.148Z,0
2022-10-18T02:58:05.143Z,0
2022-10-18T02:59:05.128Z,0
2022-10-18T03:00:05.330Z,0
2022-10-18T03:01:05.124Z,0
2022-10-18T03:02:05.137Z,0
2022-10-18T03:03:05.147Z,0
2022-10-18T03:04:05.179Z,0
2022-10-18T03:05:05.185Z,0
2022-10-18T03:06:05.157Z,0
2022-10-18T03:07:05.172Z,0
2022-10-18T03:08:05.164Z,0
2022-10-18T03:09:05.170Z,0
2022-10-18T03:10:05.200Z,0
2022-10-18T03:11:05.176Z,0
2022-10-18T03:12:05.207Z,0
2022-10-18T03:13:05.211Z,0
2022-10-18T03:14:05.171Z,0
2022-10-18T03:15:05.206Z,0
2022-10-18T03:16:05.173Z,0
2022-10-18T03:17:05.173Z,0
2022-10-18T03:18:05.175Z,0.5
2022-10-18T03:19:05.180Z,0
2022-10-18T03:20:05.170Z,0.8
2022-10-18T03:21:05.193Z,0
2022-10-18T03:22:05.185Z,0.7
2022-10-18T03:23:05.201Z,0.8
2022-10-18T03:24:05.228Z,0.6
2022-10-18T03:25:05.233Z,0
2022-10-18T03:26:05.208Z,0
2022-10-18T03:27:05.226Z,0.5
2022-10-18T03:28:05.240Z,0
2022-10-18T03:29:05.302Z,0.5
2022-10-18T03:30:05.229Z,0
2022-10-18T03:31:05.223Z,0
2022-10-18T03:32:05.205Z,0
2022-10-18T03:33:05.253Z,0.5
2022-10-18T03:34:05.236Z,0
2022-10-18T03:35:05.213Z,0
2022-10-18T03:36:05.232Z,0.8
2022-10-18T03:37:05.514Z,0.5
2022-10-18T03:38:05.234Z,0
2022-10-18T03:39:05.223Z,0
2022-10-18T03:40:05.222Z,0
2022-10-18T03:41:05.267Z,0
2022-10-18T03:42:05.245Z,0
2022-10-18T03:43:05.259Z,0
2022-10-18T03:44:05.255Z,0
2022-10-18T03:45:05.269Z,0
2022-10-18T03:46:05.250Z,0
2022-10-18T03:47:05.255Z,0
2022-10-18T03:48:05.305Z,0
2022-10-18T03:49:05.269Z,0
2022-10-18T03:50:05.267Z,0
2022-10-18T03:51:05.266Z,0
2022-10-18T03:52:05.294Z,0
2022-10-18T03:53:05.299Z,0
2022-10-18T03:54:05.276Z,0
2022-10-18T03:55:05.285Z,0.6
2022-10-18T03:56:05.284Z,0.5
2022-10-18T03:57:05.281Z,0.5
2022-10-18T03:58:05.302Z,0.8
2022-10-18T03:59:05.285Z,0
2022-10-18T04:00:05.310Z,0
2022-10-18T04:01:05.305Z,0
2022-10-18T04:02:05.340Z,0
2022-10-18T04:03:05.300Z,0
2022-10-18T04:04:05.305Z,0
2022-10-18T04:05:05.314Z,0
2022-10-18T04:06:05.297Z,0
2022-10-18T04:07:05.303Z,0
2022-10-18T04:08:05.339Z,0.6
2022-10-18T04:09:06.567Z,0
2022-10-18T04:10:05.315Z,0
2022-10-18T04:11:05.322Z,0
2022-10-18T04:12:05.319Z,0
2022-10-18T04:13:05.336Z,0
2022-10-18T04:14:05.311Z,0
2022-10-18T04:15:05.323Z,0
2022-10-18T04:16:05.307Z,0
2022-10-18T04:17:05.354Z,0
2022-10-18T04:18:05.351Z,0
2022-10-18T04:19:05.343Z,0
2022-10-18T04:20:05.339Z,0
2022-10-18T04:21:05.345Z,0
2022-10-18T04:22:05.376Z,0
2022-10-18T04:23:05.367Z,0
2022-10-18T04:24:05.344Z,0
2022-10-18T04:25:05.374Z,0
2022-10-18T04:26:05.382Z,0
2022-10-18T04:27:05.362Z,0
2022-10-18T04:28:05.384Z,0
2022-10-18T04:29:05.416Z,0
2022-10-18T04:30:05.689Z,0
2022-10-18T04:31:05.396Z,0
2022-10-18T04:32:05.427Z,0
2022-10-18T04:33:05.405Z,0
2022-10-18T04:34:05.407Z,0
2022-10-18T04:35:05.439Z,0
2022-10-18T04:36:05.396Z,0
2022-10-18T04:37:05.425Z,0
2022-10-18T04:38:05.430Z,0
2022-10-18T04:39:05.403Z,0
2022-10-18T04:40:05.404Z,0
2022-10-18T04:41:05.406Z,0
2022-10-18T04:42:05.406Z,0
2022-10-18T04:43:05.435Z,0
2022-10-18T04:44:05.415Z,0
2022-10-18T04:45:05.406Z,0
2022-10-18T04:46:05.435Z,0
2022-10-18T04:47:05.403Z,0
2022-10-18T04:48:05.435Z,0
2022-10-18T04:49:05.402Z,0
2022-10-18T04:50:05.454Z,0
2022-10-18T04:51:05.449Z,0
2022-10-18T04:52:05.414Z,0
2022-10-18T04:53:05.447Z,0
2022-10-18T04:54:05.413Z,0
2022-10-18T04:55:05.423Z,0
2022-10-18T04:56:05.442Z,0
2022-10-18T04:57:05.438Z,0
2022-10-18T04:58:05.435Z,0
2022-10-18T04:59:05.423Z,0
2022-10-18T05:00:05.424Z,0
2022-10-18T05:01:05.432Z,0
2022-10-18T05:02:05.459Z,0
2022-10-18T05:03:05.475Z,1.1
2022-10-18T05:04:05.442Z,0
2022-10-18T05:05:07.064Z,0
2022-10-18T05:06:05.459Z,0
2022-10-18T05:07:05.476Z,0
2022-10-18T05:08:05.461Z,0
2022-10-18T05:09:05.455Z,0
2022-10-18T05:10:05.486Z,0
2022-10-18T05:11:05.508Z,0
2022-10-18T05:12:05.461Z,0
2022-10-18T05:13:05.482Z,0
2022-10-18T05:14:05.464Z,0
2022-10-18T05:15:05.463Z,0
2022-10-18T05:16:05.481Z,0
2022-10-18T05:17:05.496Z,0
2022-10-18T05:18:05.510Z,0
2022-10-18T05:19:05.477Z,0
2022-10-18T05:20:05.562Z,0
2022-10-18T05:21:05.486Z,0
2022-10-18T05:22:05.533Z,0
2022-10-18T05:23:05.543Z,0
2022-10-18T05:24:05.488Z,0
2022-10-18T05:25:05.485Z,0
2022-10-18T05:26:05.724Z,0
2022-10-18T05:27:05.507Z,0
2022-10-18T05:28:06.411Z,0
2022-10-18T05:29:05.608Z,0
2022-10-18T05:30:05.821Z,0
2022-10-18T05:31:05.505Z,0
2022-10-18T05:32:05.504Z,0
2022-10-18T05:33:05.551Z,0
2022-10-18T05:34:05.523Z,0
2022-10-18T05:35:05.521Z,0
2022-10-18T05:36:05.523Z,0
2022-10-18T05:37:05.542Z,0
2022-10-18T05:38:05.567Z,0
2022-10-18T05:39:05.589Z,0
2022-10-18T05:40:05.536Z,0
2022-10-18T05:41:05.533Z,0
2022-10-18T05:42:05.531Z,0
2022-10-18T05:43:05.588Z,0
2022-10-18T05:44:05.545Z,0
2022-10-18T05:45:05.554Z,0
2022-10-18T05:46:08.201Z,0
2022-10-18T05:47:05.587Z,0
2022-10-18T05:48:05.885Z,0
2022-10-18T05:49:05.561Z,0
2022-10-18T05:50:05.551Z,0
2022-10-18T05:51:05.548Z,0
2022-10-18T05:52:05.554Z,0
2022-10-18T05:53:11.807Z,0
2022-10-18T05:54:05.564Z,0
2022-10-18T05:55:05.582Z,0
2022-10-18T05:56:05.591Z,0
2022-10-18T05:57:05.590Z,0
2022-10-18T05:58:05.596Z,0
2022-10-18T05:59:05.583Z,0
2022-10-18T06:00:05.576Z,0
2022-10-18T06:01:05.572Z,0
2022-10-18T06:02:05.636Z,0
2022-10-18T06:03:05.623Z,0
2022-10-18T06:04:05.630Z,0
2022-10-18T06:05:05.595Z,0
2022-10-18T06:06:05.587Z,0
2022-10-18T06:07:05.586Z,0
2022-10-18T06:08:06.600Z,0
2022-10-18T06:09:05.604Z,0
2022-10-18T06:10:05.662Z,0
2022-10-18T06:11:05.641Z,0
2022-10-18T06:12:05.623Z,0
2022-10-18T06:13:05.649Z,0
2022-10-18T06:14:05.602Z,0
2022-10-18T06:15:05.622Z,0
2022-10-18T06:16:05.615Z,0
2022-10-18T06:17:05.657Z,0
2022-10-18T06:18:05.618Z,0
2022-10-18T06:19:05.662Z,0
2022-10-18T06:20:05.631Z,0
2022-10-18T06:21:05.641Z,0
2022-10-18T06:22:05.644Z,0
2022-10-18T06:23:05.646Z,0
2022-10-18T06:24:05.633Z,0.5
2022-10-18T06:25:05.662Z,0.5
2022-10-18T06:26:05.667Z,0
2022-10-18T06:28:06.825Z,0
2022-10-18T06:29:05.662Z,0.5
2022-10-18T06:30:05.646Z,0.8
2022-10-18T06:31:05.645Z,0.8
2022-10-18T06:32:05.653Z,0.7
2022-10-18T06:33:05.657Z,0.5
2022-10-18T06:34:05.661Z,1
2022-10-18T06:35:05.731Z,0.6
2022-10-18T06:36:05.662Z,0.9
2022-10-18T06:37:05.658Z,0.5
2022-10-18T06:38:05.674Z,0.6
2022-10-18T06:39:05.695Z,0
2022-10-18T06:40:05.688Z,0.8
2022-10-18T06:41:05.681Z,0
2022-10-18T06:42:05.686Z,0.6
2022-10-18T06:43:16.489Z,0.6
2022-10-18T06:44:05.690Z,0.6
2022-10-18T06:45:05.684Z,0
2022-10-18T06:46:05.694Z,0.5
2022-10-18T06:47:05.683Z,0
2022-10-18T06:48:05.783Z,0
2022-10-18T06:49:05.683Z,0
2022-10-18T06:50:05.690Z,0
2022-10-18T06:51:05.687Z,0
2022-10-18T06:52:05.697Z,0
2022-10-18T06:53:05.714Z,0
2022-10-18T06:54:17.226Z,0
2022-10-18T06:55:09.044Z,0
2022-10-18T06:56:05.693Z,0
2022-10-18T06:57:05.691Z,0
2022-10-18T06:58:05.735Z,0
2022-10-18T06:59:05.733Z,0
2022-10-18T07:00:05.725Z,1.2
2022-10-18T07:01:05.712Z,0
2022-10-18T07:02:05.789Z,0
2022-10-18T07:03:05.744Z,0
2022-10-18T07:04:05.718Z,0
2022-10-18T07:05:05.707Z,0
2022-10-18T07:06:05.703Z,0
2022-10-18T07:07:05.714Z,0
2022-10-18T07:08:05.733Z,0
2022-10-18T07:09:05.707Z,0
2022-10-18T07:10:05.717Z,0.5
2022-10-18T07:11:05.728Z,0
2022-10-18T07:12:05.742Z,0.5
2022-10-18T07:13:30.702Z,0
2022-10-18T07:14:05.727Z,0
2022-10-18T07:15:09.294Z,0.5
2022-10-18T07:16:05.834Z,0.7
2022-10-18T07:17:05.758Z,0.5
2022-10-18T07:18:05.753Z,0
2022-10-18T07:19:05.780Z,0
2022-10-18T07:20:05.752Z,0
2022-10-18T07:21:05.745Z,0
2022-10-18T07:22:05.747Z,0
2022-10-18T07:23:05.753Z,0
2022-10-18T07:24:05.764Z,0
2022-10-18T07:25:05.777Z,0
2022-10-18T07:26:05.763Z,0
2022-10-18T07:27:05.777Z,0
2022-10-18T07:28:05.784Z,0
2022-10-18T07:29:05.912Z,0
2022-10-18T07:30:05.804Z,0
2022-10-18T07:31:06.026Z,0
2022-10-18T07:32:05.801Z,0
2022-10-18T07:33:05.931Z,0
2022-10-18T07:34:05.804Z,0
2022-10-18T07:35:05.813Z,0
2022-10-18T07:36:05.830Z,0
2022-10-18T07:37:05.819Z,0
2022-10-18T07:38:05.839Z,0
2022-10-18T07:39:05.823Z,0
2022-10-18T07:40:05.825Z,0
2022-10-18T07:41:05.860Z,0
2022-10-18T07:42:05.832Z,0
2022-10-18T07:43:07.504Z,0
2022-10-18T07:44:05.857Z,0
2022-10-18T07:45:05.848Z,0
2022-10-18T07:46:05.842Z,0
2022-10-18T07:47:05.870Z,0.8
2022-10-18T07:48:05.854Z,0.5
2022-10-18T07:49:05.860Z,0.5
2022-10-18T07:50:05.851Z,0.7
2022-10-18T07:51:05.853Z,0.7
2022-10-18T07:52:05.856Z,0
2022-10-18T07:53:05.869Z,0
2022-10-18T07:54:05.870Z,0
2022-10-18T07:55:05.866Z,0
2022-10-18T07:56:07.223Z,0
2022-10-18T07:57:05.906Z,0
2022-10-18T07:58:05.890Z,0
2022-10-18T07:59:05.888Z,0.9
2022-10-18T08:00:05.917Z,0
2022-10-18T08:01:06.140Z,0
2022-10-18T08:02:06.002Z,0
2022-10-18T08:03:05.925Z,0
2022-10-18T08:04:07.847Z,0
2022-10-18T08:05:05.931Z,0
2022-10-18T08:06:05.939Z,0
2022-10-18T08:07:05.931Z,0
2022-10-18T08:08:07.246Z,0
2022-10-18T08:09:05.912Z,0
2022-10-18T08:10:05.941Z,0
2022-10-18T08:11:05.921Z,0
2022-10-18T08:12:05.918Z,0
2022-10-18T08:13:05.924Z,0
2022-10-18T08:14:05.922Z,0
2022-10-18T08:15:05.946Z,0
2022-10-18T08:16:05.926Z,0
2022-10-18T08:17:05.950Z,0
2022-10-18T08:18:05.998Z,0
2022-10-18T08:19:05.955Z,0
2022-10-18T08:20:12.534Z,0
2022-10-18T08:21:05.941Z,0.5
2022-10-18T08:22:05.934Z,0
2022-10-18T08:23:05.951Z,0
2022-10-18T08:24:05.967Z,0
2022-10-18T08:25:06.054Z,0.5
2022-10-18T08:26:05.968Z,0.6
2022-10-18T08:27:05.976Z,0.8
2022-10-18T08:28:05.969Z,0
2022-10-18T08:30:05.971Z,0.8
2022-10-18T08:31:05.978Z,0.7
2022-10-18T08:32:06.016Z,0.6
2022-10-18T08:33:06.001Z,0.8
2022-10-18T08:34:05.987Z,0
2022-10-18T08:35:06.963Z,0
2022-10-18T08:36:06.024Z,1.1
2022-10-18T08:37:06.003Z,0.5
2022-10-18T08:38:06.017Z,0.9
2022-10-18T08:39:05.980Z,0.7
2022-10-18T08:40:05.980Z,0.6
2022-10-18T08:41:05.999Z,0.5
2022-10-18T08:42:05.997Z,0
2022-10-18T08:43:05.997Z,0.5
2022-10-18T08:44:07.079Z,1.1
2022-10-18T08:45:12.482Z,0.7
2022-10-18T08:46:05.981Z,1.1
2022-10-18T08:47:06.003Z,0
2022-10-18T08:48:06.003Z,0
2022-10-18T08:49:05.990Z,0
2022-10-18T08:50:05.992Z,0
2022-10-18T08:51:06.095Z,0.7
2022-10-18T08:52:06.022Z,0.5
2022-10-18T08:53:06.037Z,0
2022-10-18T08:54:06.021Z,0
2022-10-18T08:55:06.019Z,0
2022-10-18T08:56:06.023Z,0
2022-10-18T08:57:06.019Z,0.7
2022-10-18T08:58:06.158Z,0
2022-10-18T08:59:06.015Z,0
2022-10-18T09:00:06.007Z,0
2022-10-18T09:01:06.010Z,0
2022-10-18T09:02:06.007Z,1.2
2022-10-18T09:03:06.105Z,0.5
2022-10-18T09:04:06.035Z,0.8
2022-10-18T09:05:06.057Z,0.6
2022-10-18T09:06:06.062Z,0.5
2022-10-18T09:07:06.058Z,0.5
2022-10-18T09:08:06.036Z,1.1
2022-10-18T09:09:06.040Z,0.9
2022-10-18T09:10:06.110Z,0
2022-10-18T09:11:06.067Z,0
2022-10-18T09:12:06.047Z,0
2022-10-18T09:13:06.048Z,0
2022-10-18T09:14:06.062Z,0.5
2022-10-18T09:15:06.063Z,0
2022-10-18T09:16:06.073Z,0.7
2022-10-18T09:17:06.070Z,0
2022-10-18T09:18:06.077Z,0
2022-10-18T09:19:06.072Z,0
2022-10-18T09:20:06.100Z,0
2022-10-18T09:21:06.089Z,0
2022-10-18T09:22:07.399Z,0
2022-10-18T09:23:06.130Z,0
2022-10-18T09:24:06.099Z,0
2022-10-18T09:25:06.109Z,1
2022-10-18T09:26:06.091Z,1.3
2022-10-18T09:27:06.112Z,1.1
2022-10-18T09:28:06.114Z,1
2022-10-18T09:29:06.191Z,1.1
2022-10-18T09:30:06.111Z,1.2
2022-10-18T09:31:06.087Z,0
2022-10-18T09:32:06.091Z,0
2022-10-18T09:33:06.102Z,1.1
2022-10-18T09:34:06.096Z,2.5
2022-10-18T09:35:06.096Z,1.6
2022-10-18T09:36:06.227Z,1
2022-10-18T09:37:06.095Z,0.9
2022-10-18T09:38:06.153Z,1.2
2022-10-18T09:39:06.163Z,1.3
2022-10-18T09:40:06.118Z,1.1
2022-10-18T09:41:06.119Z,0.7
2022-10-18T09:42:06.119Z,2.4
2022-10-18T09:43:06.136Z,0.9
2022-10-18T09:44:06.154Z,0.6
2022-10-18T09:45:06.128Z,0
2022-10-18T09:46:06.125Z,0
2022-10-18T09:47:06.133Z,1.2
2022-10-18T09:48:06.301Z,0
2022-10-18T09:49:06.139Z,0.5
2022-10-18T09:50:06.170Z,0.8
2022-10-18T09:51:06.155Z,0.5
2022-10-18T09:52:06.166Z,0.8
2022-10-18T09:53:06.157Z,1
2022-10-18T09:54:06.192Z,0
2022-10-18T09:55:06.205Z,0
2022-10-18T09:56:06.182Z,0.6
2022-10-18T09:57:06.202Z,0.5
2022-10-18T09:58:06.211Z,0
2022-10-18T09:59:06.194Z,0
2022-10-18T10:00:06.194Z,0
2022-10-18T10:01:06.197Z,0
2022-10-18T10:02:06.271Z,0.6
2022-10-18T10:03:06.220Z,0.9
2022-10-18T10:04:06.231Z,0
2022-10-18T10:05:06.238Z,0
2022-10-18T10:06:06.218Z,0
2022-10-18T10:07:06.227Z,0
2022-10-18T10:08:06.289Z,0
2022-10-18T10:09:06.224Z,0.6
2022-10-18T10:10:06.219Z,0.7
2022-10-18T10:11:06.240Z,0.6
2022-10-18T10:12:06.223Z,1.3
2022-10-18T10:13:06.239Z,0
2022-10-18T10:14:06.293Z,0
2022-10-18T10:15:06.227Z,0
2022-10-18T10:16:06.223Z,0
2022-10-18T10:17:06.231Z,0.5
2022-10-18T10:18:06.306Z,1
2022-10-18T10:19:06.255Z,1
2022-10-18T10:20:06.247Z,0
2022-10-18T10:21:06.255Z,0.8
2022-10-18T10:22:06.259Z,0
2022-10-18T10:23:06.290Z,0
2022-10-18T10:24:06.247Z,0
2022-10-18T10:25:06.238Z,0
2022-10-18T10:26:06.264Z,0
2022-10-18T10:27:06.277Z,0
2022-10-18T10:28:06.303Z,0.5
2022-10-18T10:29:09.943Z,0
2022-10-18T10:30:07.411Z,0.8
2022-10-18T10:31:06.269Z,0
2022-10-18T10:32:06.277Z,0.5
2022-10-18T10:33:06.304Z,0
2022-10-18T10:34:06.307Z,0.8
2022-10-18T10:35:06.548Z,0.8
2022-10-18T10:36:06.275Z,0
2022-10-18T10:37:06.269Z,1.6
2022-10-18T10:38:06.365Z,1.9
2022-10-18T10:39:06.375Z,1
2022-10-18T10:40:17.615Z,2.4
2022-10-18T10:41:06.295Z,3.6
2022-10-18T10:42:07.927Z,1.6
2022-10-18T10:43:13.106Z,0.8
2022-10-18T10:44:06.299Z,0.8
2022-10-18T10:45:06.293Z,2
2022-10-18T10:46:06.300Z,0.5
2022-10-18T10:47:06.295Z,0.6
2022-10-18T10:48:06.325Z,1
2022-10-18T10:49:38.968Z,2.1
2022-10-18T10:50:06.292Z,1.8
2022-10-18T10:51:06.284Z,0.8
2022-10-18T10:52:25.813Z,0.7
2022-10-18T10:53:06.314Z,0
2022-10-18T10:54:06.311Z,1.1
2022-10-18T10:55:23.472Z,1.2
2022-10-18T10:56:06.300Z,1.6
2022-10-18T10:57:06.310Z,1.4
2022-10-18T10:58:06.314Z,2.4
2022-10-18T10:59:06.364Z,1.8
2022-10-18T11:00:06.318Z,2.5
2022-10-18T11:01:07.809Z,1.2
2022-10-18T11:02:06.308Z,0.7
2022-10-18T11:03:24.051Z,1.1
2022-10-18T11:04:06.348Z,2
2022-10-18T11:05:06.326Z,0.5
2022-10-18T11:06:06.312Z,2.4
2022-10-18T11:07:06.317Z,2.2
2022-10-18T11:08:06.332Z,0
2022-10-18T11:09:06.361Z,0.7
2022-10-18T11:10:06.331Z,0.8
2022-10-18T11:11:06.333Z,2.4
2022-10-18T11:12:06.327Z,0.9
2022-10-18T11:13:06.343Z,1.3
2022-10-18T11:14:24.509Z,2.4
2022-10-18T11:15:06.376Z,2.1
2022-10-18T11:16:06.407Z,2.7
2022-10-18T11:17:08.042Z,2
2022-10-18T11:18:06.363Z,2.4
2022-10-18T11:19:06.365Z,0.8
2022-10-18T11:20:06.354Z,2.4
2022-10-18T11:21:06.371Z,2.1
2022-10-18T11:22:06.360Z,1.3
2022-10-18T11:23:06.394Z,0.9
2022-10-18T11:24:06.379Z,2.4
2022-10-18T11:25:06.389Z,1.3
2022-10-18T11:26:06.367Z,3.4
2022-10-18T11:27:06.399Z,1.5
2022-10-18T11:28:06.388Z,2.4
2022-10-18T11:29:06.393Z,1.5
2022-10-18T11:30:06.400Z,1.9
2022-10-18T11:31:06.505Z,1.8
2022-10-18T11:32:06.394Z,1
2022-10-18T11:33:06.388Z,1.2
2022-10-18T11:34:10.264Z,2.3
2022-10-18T11:35:06.386Z,0.8
2022-10-18T11:36:06.393Z,2.5
2022-10-18T11:37:38.325Z,2.4
2022-10-18T11:38:06.422Z,2
2022-10-18T11:39:06.406Z,0
2022-10-18T11:40:06.424Z,1.2
2022-10-18T11:41:06.413Z,0.6
2022-10-18T11:42:06.410Z,0
2022-10-18T11:43:06.440Z,1.7
2022-10-18T11:44:06.444Z,1.4
2022-10-18T11:45:06.427Z,3.2
2022-10-18T11:46:06.437Z,2.4
2022-10-18T11:47:06.445Z,2.4
2022-10-18T11:48:06.468Z,1.6
2022-10-18T11:49:06.450Z,1
2022-10-18T11:50:06.435Z,0
2022-10-18T11:51:06.420Z,0
2022-10-18T11:52:08.906Z,0
2022-10-18T11:53:06.437Z,1
2022-10-18T11:54:06.423Z,1.3
2022-10-18T11:55:06.438Z,2.2
2022-10-18T11:56:06.444Z,2.2
2022-10-18T11:57:06.432Z,1.7
2022-10-18T11:58:06.455Z,2.8
2022-10-18T11:59:06.446Z,2.6
2022-10-18T12:00:06.444Z,2.5
2022-10-18T12:01:06.431Z,3.7
2022-10-18T12:02:06.433Z,0.8
2022-10-18T12:03:06.554Z,3.2
2022-10-18T12:04:06.473Z,2.4
2022-10-18T12:06:06.460Z,1.2
2022-10-18T12:07:06.463Z,0.9
2022-10-18T12:08:06.597Z,2.6
2022-10-18T12:09:06.464Z,2.2
2022-10-18T12:10:06.471Z,2.4
2022-10-18T12:11:06.949Z,1.8
2022-10-18T12:12:06.484Z,1.6
2022-10-18T12:13:06.476Z,1.5
2022-10-18T12:14:06.474Z,2.1
2022-10-18T12:15:06.493Z,2.6
2022-10-18T12:16:06.521Z,1.5
2022-10-18T12:17:39.241Z,1.9
2022-10-18T12:18:06.493Z,1.4
2022-10-18T12:19:06.513Z,2.4
2022-10-18T12:20:06.514Z,1.9
2022-10-18T12:21:06.506Z,0.6
2022-10-18T12:22:06.523Z,2.5
2022-10-18T12:23:06.513Z,3.3
2022-10-18T12:24:06.505Z,2.2
2022-10-18T12:25:06.522Z,1.6
2022-10-18T12:26:06.517Z,2.2
2022-10-18T12:27:06.500Z,2.2
2022-10-18T12:28:06.547Z,3.5
2022-10-18T12:29:06.599Z,1.9
2022-10-18T12:30:06.508Z,1.9
2022-10-18T12:31:06.521Z,2.4
2022-10-18T12:32:06.514Z,2.3
2022-10-18T12:33:23.447Z,2.2
2022-10-18T12:34:06.518Z,2.5
2022-10-18T12:35:06.544Z,2.4
2022-10-18T12:36:06.537Z,2.1
2022-10-18T12:37:06.536Z,2
2022-10-18T12:38:06.563Z,2
2022-10-18T12:39:06.532Z,1.5
2022-10-18T12:40:12.359Z,1
2022-10-18T12:41:06.538Z,1.1
2022-10-18T12:42:06.547Z,2
2022-10-18T12:43:06.577Z,0.9
2022-10-18T12:44:06.560Z,1.2
2022-10-18T12:45:06.557Z,1.3
2022-10-18T12:46:10.835Z,0.7
2022-10-18T12:47:06.547Z,0.8
2022-10-18T12:48:06.559Z,1.8
2022-10-18T12:49:06.586Z,1.5
2022-10-18T12:50:06.603Z,1.2
2022-10-18T12:51:06.599Z,1.1
2022-10-18T12:52:06.613Z,2.1
2022-10-18T12:53:06.589Z,1.8
2022-10-18T12:54:06.583Z,0.9
2022-10-18T12:55:06.584Z,2.4
2022-10-18T12:56:06.572Z,2
2022-10-18T12:57:06.578Z,1.5
2022-10-18T12:58:06.652Z,0.8
2022-10-18T12:59:06.590Z,0
2022-10-18T13:00:06.622Z,0.8
2022-10-18T13:01:06.675Z,1.4
2022-10-18T13:02:06.598Z,1.4
2022-10-18T13:03:06.608Z,2
2022-10-18T13:04:06.601Z,1.4
2022-10-18T13:05:12.289Z,2.1
2022-10-18T13:06:06.980Z,1.8
2022-10-18T13:07:06.635Z,1
2022-10-18T13:08:06.619Z,0.8
2022-10-18T13:09:06.598Z,1.9
2022-10-18T13:10:06.603Z,1.2
2022-10-18T13:11:06.599Z,1.6
2022-10-18T13:12:06.616Z,1.2
2022-10-18T13:13:19.337Z,2.4
2022-10-18T13:14:06.641Z,1
2022-10-18T13:15:21.075Z,0.6
2022-10-18T13:16:06.629Z,0.7
2022-10-18T13:17:06.620Z,1
2022-10-18T13:18:06.672Z,1
2022-10-18T13:19:06.635Z,1.2
2022-10-18T13:20:24.868Z,1.9
2022-10-18T13:21:06.654Z,1.2
2022-10-18T13:22:06.633Z,0.8
2022-10-18T13:23:06.744Z,1.1
2022-10-18T13:24:06.659Z,0.8
2022-10-18T13:25:06.664Z,0.8
2022-10-18T13:26:06.664Z,0
2022-10-18T13:27:24.270Z,0.5
2022-10-18T13:28:06.701Z,0
2022-10-18T13:29:06.756Z,0.8
2022-10-18T13:30:06.667Z,0
2022-10-18T13:31:06.689Z,0.6
2022-10-18T13:32:06.720Z,1.2
2022-10-18T13:33:06.688Z,1
2022-10-18T13:34:06.694Z,0.9
2022-10-18T13:35:06.679Z,1.2
2022-10-18T13:36:06.677Z,0.8
2022-10-18T13:37:06.672Z,2.4
2022-10-18T13:38:06.707Z,1.9
2022-10-18T13:39:06.701Z,1.1
2022-10-18T13:40:06.671Z,2.6
2022-10-18T13:41:06.691Z,2.4
2022-10-18T13:42:06.677Z,2.5
2022-10-18T13:43:06.700Z,2.2
2022-10-18T13:44:06.686Z,2.4
2022-10-18T13:45:06.684Z,2.1
2022-10-18T13:46:06.709Z,3.1
2022-10-18T13:47:06.967Z,2
2022-10-18T13:48:06.715Z,2.4
2022-10-18T13:49:06.687Z,2.4
2022-10-18T13:50:06.702Z,2.6
2022-10-18T13:51:06.706Z,2.6
2022-10-18T13:52:06.700Z,1.8
2022-10-18T13:53:06.729Z,2.4
2022-10-18T13:54:06.703Z,1.8
2022-10-18T13:55:06.729Z,1
2022-10-18T13:56:06.731Z,2.7
2022-10-18T13:57:06.724Z,2.6
2022-10-18T13:58:06.710Z,2.2
2022-10-18T13:59:14.214Z,1.3
2022-10-18T14:00:06.750Z,2.7
2022-10-18T14:01:06.789Z,2.4
2022-10-18T14:02:06.795Z,3
2022-10-18T14:03:10.100Z,2.4
2022-10-18T14:04:06.724Z,2.4
2022-10-18T14:05:23.318Z,1.3
2022-10-18T14:06:06.730Z,4.1
2022-10-18T14:07:06.719Z,3.2
2022-10-18T14:08:10.285Z,3.1
2022-10-18T14:09:09.769Z,2.2
2022-10-18T14:10:06.721Z,2.4
2022-10-18T14:11:06.744Z,2.4
2022-10-18T14:12:06.756Z,2.2
2022-10-18T14:13:06.746Z,2.7
2022-10-18T14:14:06.731Z,1.1
2022-10-18T14:15:06.743Z,1.1
2022-10-18T14:16:06.735Z,1.7
2022-10-18T14:17:06.741Z,1.9
2022-10-18T14:18:06.782Z,1.5
2022-10-18T14:19:06.755Z,0.7
2022-10-18T14:20:06.743Z,1.5
2022-10-18T14:21:13.601Z,1.6
2022-10-18T14:22:06.771Z,0.8
2022-10-18T14:23:06.806Z,1.2
2022-10-18T14:24:06.760Z,0.8
2022-10-18T14:25:06.771Z,1.1
2022-10-18T14:26:06.764Z,0.8